createdAt,value
2023-01-28T00:00:00.681Z,98613.73
2023-01-28T00:03:03.998Z,98619.50
2023-01-28T00:06:13.732Z,98617.37
2023-01-28T00:09:17.114Z,98615.87
2023-01-28T00:12:20.361Z,98614.22
2023-01-28T00:15:25.518Z,98612.11
2023-01-28T00:18:29.825Z,98610.87
2023-01-28T00:21:33.096Z,98611.98
2023-01-28T00:24:36.375Z,98607.40
2023-01-28T00:27:39.762Z,98613.80
2023-01-28T00:30:43.016Z,98612.61
2023-01-28T00:33:47.992Z,98614.79
2023-01-28T00:36:57.944Z,98609.77
2023-01-28T00:40:01.146Z,98610.66
2023-01-28T00:43:05.156Z,98607.30
2023-01-28T00:46:10.131Z,98612.49
2023-01-28T00:49:13.379Z,98614.83
2023-01-28T00:52:17.520Z,98613.07
2023-01-28T00:55:21.608Z,98619.31
2023-01-28T00:58:24.816Z,98613.67
2023-01-28T01:01:28.304Z,98611.36
2023-01-28T01:04:35.451Z,98619.50
2023-01-28T01:07:42.727Z,98619.41
2023-01-28T01:10:45.995Z,98617.60
2023-01-28T01:13:56.933Z,98617.50
2023-01-28T01:17:00.829Z,98622.79
2023-01-28T01:20:06.150Z,98623.28
2023-01-28T01:23:10.039Z,98629.73
2023-01-28T01:26:13.943Z,98632.41
2023-01-28T01:29:17.156Z,98633.02
2023-01-28T01:32:20.540Z,98630.48
2023-01-28T01:35:23.940Z,98629.27
2023-01-28T01:38:28.831Z,98631.56
2023-01-28T01:41:33.265Z,98638.35
2023-01-28T01:45:03.893Z,98643.65
2023-01-28T01:48:16.898Z,98641.07
2023-01-28T01:51:25.827Z,98643.40
2023-01-28T01:54:32.070Z,98643.53
2023-01-28T01:57:37.011Z,98646.84
2023-01-28T02:00:42.024Z,98648.21
2023-01-28T02:03:57.583Z,98642.96
2023-01-28T02:07:02.182Z,98639.80
2023-01-28T02:10:07.950Z,98637.58
2023-01-28T02:13:11.405Z,98636.19
2023-01-28T02:16:15.043Z,98638.65
2023-01-28T02:19:20.178Z,98640.30
2023-01-28T02:22:44.477Z,98645.48
2023-01-28T02:25:53.770Z,98655.58
2023-01-28T02:29:25.751Z,98653.64
2023-01-28T02:33:00.925Z,98654.15
2023-01-28T02:36:37.900Z,98654.19
2023-01-28T02:39:48.451Z,98652.48
2023-01-28T02:42:51.717Z,98652.31
2023-01-28T02:46:13.402Z,98658.02
2023-01-28T02:49:30.909Z,98664.24
2023-01-28T02:52:58.724Z,98670.81
2023-01-28T02:56:14.071Z,98672.45
2023-01-28T02:59:32.124Z,98674.42
2023-01-28T03:02:54.750Z,98672.70
2023-01-28T03:06:05.288Z,98674.38
2023-01-28T03:09:25.793Z,98677.36
2023-01-28T03:12:50.415Z,98676.46
2023-01-28T03:16:12.234Z,98675.06
2023-01-28T03:19:36.495Z,98678.09
2023-01-28T03:23:02.878Z,98672.49
2023-01-28T03:26:27.483Z,98677.90
2023-01-28T03:29:50.669Z,98675.93
2023-01-28T03:33:14.064Z,98681.02
2023-01-28T03:36:35.827Z,98679.34
2023-01-28T03:39:39.465Z,98675.96
2023-01-28T03:42:44.672Z,98679.85
2023-01-28T03:46:08.200Z,98674.60
2023-01-28T03:49:11.418Z,98672.68
2023-01-28T03:52:15.772Z,98676.59
2023-01-28T03:55:19.320Z,98672.61
2023-01-28T03:58:27.250Z,98674.96
2023-01-28T04:01:30.911Z,98674.76
2023-01-28T04:04:34.481Z,98673.22
2023-01-28T04:07:38.348Z,98675.33
2023-01-28T04:11:15.667Z,98676.13
2023-01-28T04:14:21.226Z,98678.59
2023-01-28T04:17:28.380Z,98674.27
2023-01-28T04:20:33.299Z,98674.59
2023-01-28T04:23:37.372Z,98678.09
2023-01-28T04:26:40.715Z,98681.15
2023-01-28T04:29:44.668Z,98681.50
2023-01-28T04:33:14.505Z,98682.23
2023-01-28T04:36:25.148Z,98682.23
2023-01-28T04:39:58.641Z,98681.02
2023-01-28T04:43:18.118Z,98680.48
2023-01-28T04:46:25.847Z,98682.52
2023-01-28T04:49:38.779Z,98682.31
2023-01-28T04:53:14.202Z,98682.74
2023-01-28T04:56:29.527Z,98680.42
2023-01-28T04:59:32.847Z,98681.18
2023-01-28T05:02:36.308Z,98681.54
2023-01-28T05:05:39.656Z,98683.05
2023-01-28T05:08:55.511Z,98679.98
2023-01-28T05:11:58.964Z,98686.16
2023-01-28T05:15:02.245Z,98688.73
2023-01-28T05:18:05.708Z,98691.25
2023-01-28T05:21:15.714Z,98695.79
2023-01-28T05:24:21.645Z,98693.48
2023-01-28T05:27:25.162Z,98700.83
2023-01-28T05:30:30.009Z,98700.45
2023-01-28T05:33:33.533Z,98708.83
2023-01-28T05:36:37.172Z,98710.59
2023-01-28T05:39:52.448Z,98711.08
2023-01-28T05:42:55.700Z,98707.23
2023-01-28T05:46:06.222Z,98712.43
2023-01-28T05:49:32.066Z,98716.69
2023-01-28T05:52:48.691Z,98718.21
2023-01-28T05:56:02.625Z,98723.00
2023-01-28T05:59:07.579Z,98723.00
2023-01-28T06:02:10.891Z,98721.63
2023-01-28T06:05:14.559Z,98727.41
2023-01-28T06:08:17.905Z,98731.99
2023-01-28T06:11:21.248Z,98739.66
2023-01-28T06:14:26.009Z,98741.06
2023-01-28T06:18:04.886Z,98744.34
2023-01-28T06:21:11.372Z,98746.29
2023-01-28T06:24:14.760Z,98746.92
2023-01-28T06:27:18.204Z,98745.63
2023-01-28T06:30:21.446Z,98739.95
2023-01-28T06:33:24.758Z,98740.70
2023-01-28T06:36:27.987Z,98742.08
2023-01-28T06:39:34.409Z,98744.60
2023-01-28T06:42:37.651Z,98747.40
2023-01-28T06:45:40.868Z,98751.29
2023-01-28T06:48:44.066Z,98753.04
2023-01-28T06:51:47.303Z,98755.55
2023-01-28T06:54:50.512Z,98757.82
2023-01-28T06:57:53.737Z,98754.56
2023-01-28T07:00:56.923Z,98755.87
2023-01-28T07:04:00.319Z,98754.98
2023-01-28T07:07:04.026Z,98758.39
2023-01-28T07:10:07.828Z,98760.77
2023-01-28T07:13:11.884Z,98769.34
2023-01-28T07:16:15.208Z,98775.34
2023-01-28T07:19:18.420Z,98780.81
2023-01-28T07:22:21.669Z,98784.73
2023-01-28T07:25:24.953Z,98788.48
2023-01-28T07:28:28.151Z,98794.90
2023-01-28T07:31:31.423Z,98801.08
2023-01-28T07:34:37.560Z,98803.11
2023-01-28T07:37:40.748Z,98800.59
2023-01-28T07:40:45.596Z,98806.39
2023-01-28T07:43:48.828Z,98805.59
2023-01-28T07:46:52.432Z,98811.11
2023-01-28T07:49:55.733Z,98808.34
2023-01-28T07:52:59.331Z,98811.93
2023-01-28T07:56:03.192Z,98809.30
2023-01-28T07:59:06.472Z,98815.63
2023-01-28T08:02:12.383Z,98824.33
2023-01-28T08:05:19.976Z,98824.41
2023-01-28T08:08:25.517Z,98825.79
2023-01-28T08:11:28.736Z,98822.16
2023-01-28T08:14:31.921Z,98826.11
2023-01-28T08:17:35.130Z,98828.56
2023-01-28T08:20:38.317Z,98828.58
2023-01-28T08:23:41.573Z,98835.80
2023-01-28T08:26:46.346Z,98831.95
2023-01-28T08:29:49.605Z,98829.71
2023-01-28T08:32:57.311Z,98833.66
2023-01-28T08:36:04.193Z,98829.63
2023-01-28T08:39:07.391Z,98831.21
2023-01-28T08:42:10.598Z,98828.94
2023-01-28T08:45:14.562Z,98830.23
2023-01-28T08:48:19.354Z,98827.97
2023-01-28T08:51:22.705Z,98827.58
2023-01-28T08:54:25.950Z,98831.36
2023-01-28T08:57:29.521Z,98828.21
2023-01-28T09:00:34.301Z,98830.21
2023-01-28T09:03:37.594Z,98827.34
2023-01-28T09:06:40.846Z,98834.67
2023-01-28T09:09:44.083Z,98840.81
2023-01-28T09:12:47.295Z,98844.23
2023-01-28T09:15:51.377Z,98843.98
2023-01-28T09:18:54.648Z,98849.78
2023-01-28T09:21:57.891Z,98854.08
2023-01-28T09:25:01.073Z,98854.97
2023-01-28T09:28:05.034Z,98860.96
2023-01-28T09:31:11.306Z,98857.77
2023-01-28T09:34:14.673Z,98855.66
2023-01-28T09:37:18.444Z,98855.50
2023-01-28T09:40:36.124Z,98856.16
2023-01-28T09:43:51.681Z,98851.47
2023-01-28T09:47:02.104Z,98852.58
2023-01-28T09:50:11.885Z,98852.81
2023-01-28T09:53:42.287Z,98855.21
2023-01-28T09:56:50.706Z,98857.59
2023-01-28T09:59:54.038Z,98852.36
2023-01-28T10:03:18.634Z,98846.86
2023-01-28T10:06:30.926Z,98844.88
2023-01-28T10:09:56.601Z,98841.08
2023-01-28T10:13:39.734Z,98842.71
2023-01-28T10:16:53.330Z,98840.95
2023-01-28T10:20:11.808Z,98840.02
2023-01-28T10:23:32.284Z,98838.27
2023-01-28T10:26:40.508Z,98839.57
2023-01-28T10:29:46.485Z,98836.39
2023-01-28T10:33:04.326Z,98833.29
2023-01-28T10:36:09.462Z,98829.35
2023-01-28T10:39:18.268Z,98828.23
2023-01-28T10:42:33.784Z,98826.12
2023-01-28T10:45:44.792Z,98825.21
2023-01-28T10:48:47.956Z,98831.59
2023-01-28T10:51:51.221Z,98835.21
2023-01-28T10:55:05.713Z,98833.48
2023-01-28T10:58:20.576Z,98833.30
2023-01-28T11:01:24.278Z,98832.20
2023-01-28T11:04:30.412Z,98825.73
2023-01-28T11:07:33.863Z,98836.33
2023-01-28T11:10:38.519Z,98835.15
2023-01-28T11:13:52.034Z,98831.43
2023-01-28T11:16:58.491Z,98837.90
2023-01-28T11:20:11.148Z,98832.02
2023-01-28T11:23:28.413Z,98827.34
2023-01-28T11:26:36.708Z,98827.60
2023-01-28T11:29:42.217Z,98823.52
2023-01-28T11:32:46.020Z,98822.50
2023-01-28T11:35:55.057Z,98821.16
2023-01-28T11:39:05.593Z,98820.39
2023-01-28T11:42:17.727Z,98817.52
2023-01-28T11:45:48.768Z,98818.13
2023-01-28T11:49:05.079Z,98813.50
2023-01-28T11:52:55.369Z,98817.52
2023-01-28T11:56:19.828Z,98816.84
2023-01-28T11:59:38.396Z,98816.70
2023-01-28T12:02:51.176Z,98811.21
2023-01-28T12:06:13.055Z,98811.73
2023-01-28T12:09:30.510Z,98811.10
2023-01-28T12:12:51.644Z,98810.38
2023-01-28T12:16:26.610Z,98804.52
2023-01-28T12:19:30.074Z,98804.69
2023-01-28T12:22:45.645Z,98804.87
2023-01-28T12:25:56.405Z,98811.73
2023-01-28T12:29:20.705Z,98819.65
2023-01-28T12:32:49.681Z,98816.58
2023-01-28T12:36:07.133Z,98819.64
2023-01-28T12:39:34.022Z,98822.30
2023-01-28T12:42:47.933Z,98822.52
2023-01-28T12:46:16.205Z,98828.08
2023-01-28T12:49:52.148Z,98823.86
2023-01-28T12:53:05.067Z,98826.60
2023-01-28T12:56:11.221Z,98829.29
2023-01-28T12:59:21.176Z,98822.70
2023-01-28T13:02:33.457Z,98823.15
2023-01-28T13:05:44.477Z,98831.14
2023-01-28T13:08:49.608Z,98827.12
2023-01-28T13:11:57.161Z,98833.09
2023-01-28T13:15:01.038Z,98833.80
2023-01-28T13:18:06.087Z,98828.02
2023-01-28T13:21:24.237Z,98831.88
2023-01-28T13:24:32.915Z,98832.77
2023-01-28T13:27:36.229Z,98833.86
2023-01-28T13:30:53.575Z,98837.84
2023-01-28T13:33:56.811Z,98836.48
2023-01-28T13:37:05.922Z,98841.59
2023-01-28T13:40:15.237Z,98847.91
2023-01-28T13:43:48.101Z,98850.91
2023-01-28T13:46:53.138Z,98850.56
2023-01-28T13:50:03.979Z,98843.55
2023-01-28T13:53:35.690Z,98846.27
2023-01-28T13:56:52.584Z,98850.03
2023-01-28T14:00:07.516Z,98853.00
2023-01-28T14:03:24.286Z,98854.37
2023-01-28T14:06:30.385Z,98854.05
2023-01-28T14:10:16.812Z,98851.61
2023-01-28T14:13:26.187Z,98856.83
2023-01-28T14:16:38.149Z,98856.13
2023-01-28T14:19:44.689Z,98857.48
2023-01-28T14:22:48.954Z,98855.05
2023-01-28T14:25:55.207Z,98858.11
2023-01-28T14:29:10.039Z,98862.75
2023-01-28T14:32:17.180Z,98863.06
2023-01-28T14:35:29.585Z,98870.98
2023-01-28T14:38:37.914Z,98873.75
2023-01-28T14:41:44.828Z,98870.38
2023-01-28T14:44:55.898Z,98872.38
2023-01-28T14:48:25.338Z,98878.28
2023-01-28T14:51:54.835Z,98874.80
2023-01-28T14:55:23.482Z,98876.15
2023-01-28T14:58:52.088Z,98882.91
2023-01-28T15:01:58.184Z,98889.80
2023-01-28T15:05:10.859Z,98886.66
2023-01-28T15:08:24.229Z,98889.46
2023-01-28T15:11:27.485Z,98888.69
2023-01-28T15:14:32.724Z,98891.15
2023-01-28T15:17:36.007Z,98891.54
2023-01-28T15:20:39.542Z,98892.75
2023-01-28T15:23:43.582Z,98901.30
2023-01-28T15:26:47.991Z,98901.13
2023-01-28T15:29:54.508Z,98905.38
2023-01-28T15:33:06.998Z,98908.71
2023-01-28T15:36:10.490Z,98910.38
2023-01-28T15:39:21.873Z,98919.30
2023-01-28T15:42:29.451Z,98921.44
2023-01-28T15:45:32.720Z,98924.12
2023-01-28T15:48:36.770Z,98931.30
2023-01-28T15:51:40.008Z,98928.32
2023-01-28T15:54:49.825Z,98931.13
2023-01-28T15:57:55.586Z,98933.59
2023-01-28T16:01:15.084Z,98933.21
2023-01-28T16:04:26.992Z,98937.50
2023-01-28T16:07:34.118Z,98936.16
2023-01-28T16:10:38.337Z,98940.04
2023-01-28T16:13:44.024Z,98939.64
2023-01-28T16:16:48.603Z,98941.79
2023-01-28T16:19:58.667Z,98934.70
2023-01-28T16:23:04.123Z,98941.42
2023-01-28T16:26:24.068Z,98940.56
2023-01-28T16:29:30.820Z,98947.20
2023-01-28T16:32:39.277Z,98948.81
2023-01-28T16:36:03.528Z,98946.27
2023-01-28T16:39:05.893Z,98944.88
2023-01-28T16:42:09.485Z,98945.63
2023-01-28T16:45:21.589Z,98949.98
2023-01-28T16:48:25.056Z,98942.95
2023-01-28T16:51:28.439Z,98948.02
2023-01-28T16:54:33.905Z,98956.70
2023-01-28T16:57:37.271Z,98956.21
2023-01-28T17:00:40.582Z,98957.33
2023-01-28T17:03:44.000Z,98957.23
2023-01-28T17:06:47.405Z,98954.73
2023-01-28T17:09:50.642Z,98953.86
2023-01-28T17:12:54.501Z,98956.57
2023-01-28T17:19:19.533Z,98956.24
2023-01-28T17:22:22.716Z,98955.02
2023-01-28T17:25:25.984Z,98958.29
2023-01-28T17:28:29.165Z,98960.27
2023-01-28T17:31:32.629Z,98961.58
2023-01-28T17:34:35.875Z,98963.80
2023-01-28T17:37:39.088Z,98966.05
2023-01-28T17:40:42.622Z,98963.51
2023-01-28T17:43:53.404Z,98964.27
2023-01-28T17:46:56.684Z,98968.87
2023-01-28T17:50:00.014Z,98969.59
2023-01-28T17:53:03.372Z,98977.46
2023-01-28T17:56:06.920Z,98980.31
2023-01-28T17:59:10.236Z,98984.27
2023-01-28T18:02:14.701Z,98979.61
2023-01-28T18:05:18.603Z,98986.77
2023-01-28T18:08:21.821Z,98984.34
2023-01-28T18:11:25.093Z,98987.30
2023-01-28T18:14:28.486Z,98986.89
2023-01-28T18:17:31.746Z,98990.77
2023-01-28T18:20:35.068Z,98993.92
2023-01-28T18:23:38.233Z,98995.91
2023-01-28T18:26:41.649Z,98996.27
2023-01-28T18:29:44.883Z,98997.27
2023-01-28T18:32:48.243Z,98994.77
2023-01-28T18:35:51.412Z,98997.61
2023-01-28T18:38:54.730Z,98996.50
2023-01-28T18:41:58.899Z,98994.48
2023-01-28T18:45:02.209Z,98997.51
2023-01-28T18:48:05.552Z,99001.40
2023-01-28T18:51:27.735Z,98999.74
2023-01-28T18:54:32.486Z,98998.36
2023-01-28T18:57:35.744Z,99008.73
2023-01-28T19:00:39.240Z,99006.16
2023-01-28T19:03:42.477Z,99012.11
2023-01-28T19:06:46.763Z,99008.20
2023-01-28T19:09:50.052Z,99012.14
2023-01-28T19:12:53.290Z,99014.85
2023-01-28T19:15:56.889Z,99021.86
2023-01-28T19:19:01.560Z,99023.66
2023-01-28T19:22:04.844Z,99022.70
2023-01-28T19:25:08.752Z,99021.78
2023-01-28T19:28:11.978Z,99019.05
2023-01-28T19:31:15.566Z,99013.34
2023-01-28T19:34:18.987Z,99017.53
2023-01-28T19:37:22.837Z,99016.30
2023-01-28T19:40:26.051Z,99019.58
2023-01-28T19:43:29.353Z,99023.89
2023-01-28T19:46:33.970Z,99026.32
2023-01-28T19:49:37.487Z,99032.76
2023-01-28T19:52:40.773Z,99032.76
2023-01-28T19:55:44.320Z,99036.03
2023-01-28T19:58:47.938Z,99043.30
2023-01-28T20:01:51.248Z,99050.25
2023-01-28T20:05:00.687Z,99053.12
2023-01-28T20:08:05.543Z,99051.26
2023-01-28T20:11:12.208Z,99051.23
2023-01-28T20:14:16.169Z,99053.00
2023-01-28T20:17:20.601Z,99054.66
2023-01-28T20:20:23.786Z,99052.74
2023-01-28T20:23:27.806Z,99051.47
2023-01-28T20:26:33.665Z,99051.69
2023-01-28T20:29:36.992Z,99053.63
2023-01-28T20:32:40.166Z,99059.61
2023-01-28T20:35:44.857Z,99058.12
2023-01-28T20:38:48.964Z,99057.86
2023-01-28T20:41:52.184Z,99056.71
2023-01-28T20:44:55.400Z,99063.89
2023-01-28T20:47:58.760Z,99074.02
2023-01-28T20:51:16.609Z,99073.88
2023-01-28T20:54:21.123Z,99064.77
2023-01-28T20:57:24.347Z,99068.23
2023-01-28T21:00:27.521Z,99077.30
2023-01-28T21:03:30.821Z,99075.13
2023-01-28T21:06:36.453Z,99074.10
2023-01-28T21:09:40.113Z,99080.70
2023-01-28T21:12:43.304Z,99078.97
2023-01-28T21:15:54.630Z,99081.17
2023-01-28T21:18:57.879Z,99082.38
2023-01-28T21:22:01.417Z,99083.95
2023-01-28T21:25:05.659Z,99091.27
2023-01-28T21:28:12.363Z,99094.71
2023-01-28T21:31:18.128Z,99098.48
2023-01-28T21:34:21.290Z,99098.41
2023-01-28T21:37:26.043Z,99098.76
2023-01-28T21:40:29.322Z,99093.73
2023-01-28T21:43:33.421Z,99091.86
2023-01-28T21:46:36.813Z,99089.00
2023-01-28T21:49:40.153Z,99097.36
2023-01-28T21:52:43.449Z,99097.87
2023-01-28T21:55:49.159Z,99092.06
2023-01-28T21:59:11.374Z,99095.11
2023-01-28T22:02:15.305Z,99094.20
2023-01-28T22:05:18.593Z,99092.89
2023-01-28T22:08:22.313Z,99095.72
2023-01-28T22:11:25.644Z,99097.41
2023-01-28T22:14:29.291Z,99100.42
2023-01-28T22:17:32.470Z,99106.05
2023-01-28T22:20:35.693Z,99110.59
2023-01-28T22:23:39.643Z,99109.73
2023-01-28T22:26:44.047Z,99110.56
2023-01-28T22:29:47.325Z,99113.29
2023-01-28T22:32:50.630Z,99123.14
2023-01-28T22:35:53.838Z,99123.02
2023-01-28T22:38:57.119Z,99125.48
2023-01-28T22:42:00.393Z,99123.23
2023-01-28T22:45:04.023Z,99121.23
2023-01-28T22:48:07.369Z,99122.98
2023-01-28T22:51:19.311Z,99130.11
2023-01-28T22:54:22.536Z,99121.64
2023-01-28T22:57:25.767Z,99117.05
2023-01-28T23:00:29.087Z,99111.20
2023-01-28T23:03:33.068Z,99112.55
2023-01-28T23:06:37.360Z,99107.45
2023-01-28T23:09:40.613Z,99099.91
2023-01-28T23:12:45.931Z,99104.09
2023-01-28T23:16:09.174Z,99102.62
2023-01-28T23:19:30.879Z,99093.73
2023-01-28T23:22:53.082Z,99084.77
2023-01-28T23:25:56.294Z,99082.05
2023-01-28T23:29:00.244Z,99082.60
2023-01-28T23:32:07.206Z,99080.86
2023-01-28T23:35:12.305Z,99085.48
2023-01-28T23:38:15.635Z,99087.25
2023-01-28T23:41:18.912Z,99084.12
2023-01-28T23:44:26.308Z,99078.57
2023-01-28T23:47:29.720Z,99072.97
2023-01-28T23:50:33.080Z,99077.03
2023-01-28T23:53:36.310Z,99082.62
2023-01-28T23:56:39.761Z,99083.63
2023-01-28T23:59:43.180Z,99082.41
